Time;durP1;ratioP1;P1;durP2;ratioP2;P2;SDS_P1;SDS_P2;PMS_P1;PMS_P2;Temp;Humidity;BMP_temperature;BMP_pressure;BME280_temperature;BME280_humidity;BME280_pressure;Samples;Min_cycle;Max_cycle;Signal;HPM_P1;HPM_P2
2022/05/06 00:00:56;;;;;;;5.55;2.65;;;12.60;71.70;;;;;;4986390;28;20117;-80
2022/05/06 00:03:21;;;;;;;3.45;2.67;;;12.50;71.90;;;;;;4991253;28;20030;-80
2022/05/06 00:05:47;;;;;;;4.97;3.30;;;12.50;72.00;;;;;;4975610;28;20499;-80
2022/05/06 00:08:13;;;;;;;6.45;2.35;;;12.50;72.10;;;;;;4986150;28;20042;-80
2022/05/06 00:10:39;;;;;;;2.50;2.30;;;12.50;72.20;;;;;;4986847;28;20030;-80
2022/05/06 00:13:05;;;;;;;4.57;2.13;;;12.50;72.20;;;;;;4977375;28;20065;-80
2022/05/06 00:15:31;;;;;;;5.75;2.50;;;12.50;72.30;;;;;;4999524;28;20042;-78
2022/05/06 00:17:56;;;;;;;3.83;2.30;;;12.50;72.30;;;;;;4961929;28;20038;-80
2022/05/06 00:20:22;;;;;;;4.47;2.33;;;12.50;72.30;;;;;;4977474;28;20092;-80
2022/05/06 00:22:47;;;;;;;4.88;2.70;;;12.40;72.30;;;;;;4971351;28;20027;-80
2022/05/06 00:25:13;;;;;;;7.00;2.63;;;12.40;72.40;;;;;;4975785;28;20038;-80
2022/05/06 00:27:41;;;;;;;2.33;2.05;;;12.40;72.50;;;;;;4975673;28;20068;-80
2022/05/06 00:30:07;;;;;;;4.70;2.28;;;12.30;72.50;;;;;;4986496;28;20033;-80
2022/05/06 00:32:33;;;;;;;4.38;2.67;;;12.30;72.60;;;;;;4985312;28;20049;-80
2022/05/06 00:34:58;;;;;;;5.78;2.88;;;12.30;72.80;;;;;;4981686;28;20037;-80
2022/05/06 00:37:24;;;;;;;3.90;2.58;;;12.20;72.80;;;;;;4988015;28;20396;-81
2022/05/06 00:39:49;;;;;;;4.50;2.58;;;12.20;73.00;;;;;;4971251;28;20022;-80
2022/05/06 00:42:15;;;;;;;4.18;2.50;;;12.20;73.10;;;;;;4965690;28;20034;-80
2022/05/06 00:44:41;;;;;;;4.93;2.83;;;12.10;73.20;;;;;;4991029;28;20033;-78
2022/05/06 00:47:07;;;;;;;5.22;2.63;;;12.10;73.30;;;;;;4994646;28;20030;-80
2022/05/06 00:49:32;;;;;;;4.55;2.55;;;12.00;73.40;;;;;;4973975;28;20128;-80
2022/05/06 00:51:58;;;;;;;5.32;2.45;;;12.00;73.50;;;;;;4963634;28;20026;-80
2022/05/06 00:54:24;;;;;;;5.32;2.55;;;12.00;73.70;;;;;;4985689;28;20034;-80
2022/05/06 00:56:49;;;;;;;4.20;2.35;;;11.90;73.80;;;;;;4983885;28;20088;-80
2022/05/06 00:59:16;;;;;;;3.53;2.67;;;11.90;73.90;;;;;;4977228;28;20428;-80
2022/05/06 01:01:42;;;;;;;5.82;2.88;;;11.80;74.00;;;;;;4971335;28;20041;-80
2022/05/06 01:04:07;;;;;;;3.00;2.60;;;11.80;74.10;;;;;;4971185;28;20584;-81
2022/05/06 01:06:34;;;;;;;6.15;2.60;;;11.80;74.10;;;;;;4968682;28;20029;-80
2022/05/06 01:08:59;;;;;;;5.30;2.65;;;11.80;74.20;;;;;;4983080;28;20373;-81
2022/05/06 01:11:25;;;;;;;5.30;2.70;;;11.80;74.20;;;;;;4992771;28;20038;-80
2022/05/06 01:13:55;;;;;;;5.43;2.53;;;11.70;74.30;;;;;;4939211;28;20046;-80
2022/05/06 01:16:20;;;;;;;5.07;2.88;;;11.70;74.40;;;;;;4992074;28;20684;-80
2022/05/06 01:18:47;;;;;;;3.70;2.45;;;11.70;74.40;;;;;;4986932;28;20050;-80
2022/05/06 01:21:17;;;;;;;5.20;2.55;;;11.70;74.50;;;;;;4986046;28;20038;-80
2022/05/06 01:23:42;;;;;;;4.47;2.58;;;11.70;74.60;;;;;;4970435;28;20389;-80
2022/05/06 01:26:08;;;;;;;4.93;2.95;;;11.60;74.60;;;;;;4970195;28;20054;-80
2022/05/06 01:28:35;;;;;;;5.43;2.70;;;11.60;74.60;;;;;;4987551;28;20041;-80
2022/05/06 01:31:01;;;;;;;3.80;2.63;;;11.60;74.70;;;;;;4970053;28;20038;-81
2022/05/06 01:33:28;;;;;;;2.83;2.30;;;11.50;74.70;;;;;;4973454;28;20042;-80
2022/05/06 01:35:59;;;;;;;3.20;2.42;;;11.50;74.90;;;;;;4988034;28;20033;-80
2022/05/06 01:38:34;;;;;;;5.07;2.40;;;11.50;75.10;;;;;;4962627;28;20607;-80
2022/05/06 01:41:05;;;;;;;3.78;2.85;;;11.40;75.00;;;;;;4966331;28;20262;-80
2022/05/06 01:43:37;;;;;;;4.72;2.17;;;11.30;75.00;;;;;;4973730;28;20034;-80
2022/05/06 01:46:02;;;;;;;3.33;2.33;;;11.30;75.10;;;;;;4964971;28;20065;-80
2022/05/06 01:48:28;;;;;;;3.03;2.60;;;11.30;75.10;;;;;;4988143;28;20679;-80
2022/05/06 01:50:53;;;;;;;7.65;2.92;;;11.30;75.10;;;;;;4963769;28;20539;-80
2022/05/06 01:53:19;;;;;;;4.63;2.50;;;11.30;75.20;;;;;;4972920;28;20038;-80
2022/05/06 01:55:45;;;;;;;3.20;2.85;;;11.30;75.30;;;;;;4990043;28;20045;-81
2022/05/06 01:58:11;;;;;;;5.10;2.67;;;11.20;75.30;;;;;;4964682;28;20109;-80
2022/05/06 02:00:36;;;;;;;3.53;2.53;;;11.20;75.30;;;;;;4991920;28;20031;-80
2022/05/06 02:03:03;;;;;;;10.05;2.47;;;11.10;75.30;;;;;;4969532;28;20841;-80
2022/05/06 02:05:28;;;;;;;3.92;2.33;;;11.10;75.40;;;;;;4951085;28;20035;-80
2022/05/06 02:07:54;;;;;;;6.22;2.30;;;11.00;75.30;;;;;;4985491;28;20036;-80
2022/05/06 02:10:21;;;;;;;4.57;1.98;;;11.00;75.50;;;;;;4989270;28;20232;-80
2022/05/06 02:12:47;;;;;;;4.18;2.40;;;11.00;75.60;;;;;;4963625;28;20436;-80
2022/05/06 02:15:13;;;;;;;2.40;2.20;;;11.00;75.60;;;;;;4978415;28;20027;-80
2022/05/06 02:17:39;;;;;;;4.35;2.42;;;11.00;75.70;;;;;;4983361;28;20049;-80
2022/05/06 02:20:06;;;;;;;2.90;2.20;;;10.90;75.70;;;;;;4983900;28;20047;-80
2022/05/06 02:22:32;;;;;;;5.22;2.47;;;10.90;75.80;;;;;;4984855;28;20034;-80
2022/05/06 02:24:58;;;;;;;2.53;2.10;;;10.80;75.80;;;;;;4989054;28;20061;-80
2022/05/06 02:27:24;;;;;;;5.45;2.78;;;10.80;75.80;;;;;;4974712;28;20155;-80
2022/05/06 02:35:17;;;;;;;3.58;2.20;;;10.60;76.10;;;;;;4982595;28;20067;-80
2022/05/06 02:37:43;;;;;;;3.13;2.63;;;10.60;76.10;;;;;;4992991;28;20050;-80
2022/05/06 02:40:09;;;;;;;5.97;2.40;;;10.50;76.30;;;;;;4977363;28;20029;-80
2022/05/06 02:42:35;;;;;;;5.50;2.53;;;10.40;76.40;;;;;;4969045;28;20042;-80
2022/05/06 02:45:00;;;;;;;5.25;2.35;;;10.40;76.50;;;;;;4958741;28;20680;-80
2022/05/06 02:47:26;;;;;;;3.05;2.53;;;10.40;76.60;;;;;;4987852;28;20110;-80
2022/05/06 02:49:52;;;;;;;2.67;2.38;;;10.40;76.60;;;;;;4986887;28;20085;-80
2022/05/06 02:52:18;;;;;;;5.07;2.40;;;10.30;76.60;;;;;;4991547;28;20091;-80
2022/05/06 02:54:44;;;;;;;2.75;2.45;;;10.40;76.80;;;;;;4973527;28;20475;-80
2022/05/06 02:57:10;;;;;;;4.10;2.63;;;10.30;76.80;;;;;;4983658;28;20519;-80
2022/05/06 02:59:36;;;;;;;3.92;2.33;;;10.30;76.80;;;;;;4997448;28;20041;-80
2022/05/06 03:02:02;;;;;;;4.05;2.50;;;10.30;76.90;;;;;;4964061;28;20833;-80
2022/05/06 03:04:27;;;;;;;5.65;2.60;;;10.20;76.90;;;;;;4974023;28;20053;-80
2022/05/06 03:06:53;;;;;;;5.55;2.58;;;10.10;77.00;;;;;;4995261;28;20464;-80
2022/05/06 03:09:19;;;;;;;5.40;2.67;;;10.10;77.20;;;;;;4980115;28;20705;-80
2022/05/06 03:11:45;;;;;;;5.53;2.90;;;10.10;77.40;;;;;;4987383;28;20060;-80
2022/05/06 03:14:11;;;;;;;3.42;2.67;;;10.00;77.30;;;;;;4965692;28;20125;-80
2022/05/06 03:16:36;;;;;;;5.43;2.65;;;10.00;77.40;;;;;;4983614;28;20117;-80
2022/05/06 03:19:02;;;;;;;3.53;2.33;;;10.00;77.40;;;;;;4976800;28;20129;-80
2022/05/06 03:21:28;;;;;;;10.90;3.15;;;10.00;77.60;;;;;;4968746;28;20030;-80
2022/05/06 03:23:53;;;;;;;6.82;2.97;;;10.00;77.60;;;;;;4984748;28;20145;-80
2022/05/06 03:26:19;;;;;;;2.88;2.38;;;10.00;77.60;;;;;;4990004;28;20030;-80
2022/05/06 03:28:44;;;;;;;3.58;2.38;;;10.00;77.70;;;;;;4963686;28;20054;-80
2022/05/06 03:31:13;;;;;;;5.68;2.70;;;9.90;77.70;;;;;;4972003;28;20114;-80
2022/05/06 03:33:41;;;;;;;4.65;2.95;;;9.90;77.80;;;;;;4990025;28;20045;-80
2022/05/06 03:36:08;;;;;;;3.67;2.65;;;9.90;77.80;;;;;;4966431;28;20496;-80
2022/05/06 03:38:34;;;;;;;3.25;2.53;;;9.80;77.80;;;;;;4984429;28;20034;-80
2022/05/06 03:40:59;;;;;;;3.47;2.70;;;9.90;78.00;;;;;;4981455;28;20089;-80
2022/05/06 03:43:27;;;;;;;3.92;2.78;;;9.90;78.00;;;;;;4981350;28;20034;-80
2022/05/06 03:45:52;;;;;;;5.25;3.03;;;9.80;78.00;;;;;;4984231;28;20027;-80
2022/05/06 03:48:21;;;;;;;4.82;2.80;;;9.80;78.10;;;;;;4992569;28;20038;-80
2022/05/06 03:53:31;;;;;;;3.75;3.00;;;9.90;78.30;;;;;;4984477;28;20108;-80
2022/05/06 03:55:56;;;;;;;3.55;2.60;;;9.80;78.10;;;;;;4977633;28;20042;-80
2022/05/06 03:58:22;;;;;;;4.25;2.70;;;9.80;78.10;;;;;;4962378;28;20456;-80
2022/05/06 04:00:47;;;;;;;4.75;2.90;;;9.80;78.00;;;;;;4984463;28;20129;-79
2022/05/06 04:03:14;;;;;;;5.25;2.58;;;9.80;78.00;;;;;;4986721;28;20107;-80
2022/05/06 04:05:40;;;;;;;3.83;2.92;;;9.80;78.10;;;;;;4975147;28;20502;-80
2022/05/06 04:08:07;;;;;;;5.05;2.80;;;9.70;78.10;;;;;;4982011;28;20034;-80
2022/05/06 04:10:32;;;;;;;3.92;2.60;;;9.70;78.30;;;;;;4982688;28;20068;-80
2022/05/06 04:12:58;;;;;;;5.03;2.70;;;9.60;78.40;;;;;;4981381;28;20113;-80
2022/05/06 04:15:23;;;;;;;5.72;2.75;;;9.50;78.40;;;;;;4983218;28;20038;-80
2022/05/06 04:17:49;;;;;;;3.40;2.60;;;9.50;78.40;;;;;;4965864;28;20571;-80
2022/05/06 04:25:42;;;;;;;4.53;2.75;;;9.40;78.80;;;;;;4989377;28;20044;-80
2022/05/06 04:28:08;;;;;;;5.57;2.70;;;9.30;78.90;;;;;;4979159;28;20104;-80
2022/05/06 04:30:34;;;;;;;5.22;3.20;;;9.30;79.00;;;;;;4974398;28;20030;-80
2022/05/06 04:32:59;;;;;;;5.10;3.15;;;9.30;79.20;;;;;;4985179;28;20043;-80
2022/05/06 04:35:25;;;;;;;4.72;3.05;;;9.30;80.00;;;;;;4981426;28;20790;-80
2022/05/06 04:37:51;;;;;;;6.95;3.03;;;9.30;79.30;;;;;;4985152;28;20113;-79
2022/05/06 04:40:17;;;;;;;4.88;3.20;;;9.30;79.40;;;;;;4973755;28;20042;-79
2022/05/06 04:42:42;;;;;;;6.10;3.33;;;9.30;79.50;;;;;;4973174;28;20103;-79
2022/05/06 04:45:10;;;;;;;5.82;3.35;;;9.30;79.70;;;;;;4976188;28;20045;-80
2022/05/06 04:47:37;;;;;;;8.52;2.72;;;9.30;79.80;;;;;;4983293;28;20034;-80
2022/05/06 04:50:03;;;;;;;4.43;2.72;;;9.30;79.80;;;;;;4978147;28;20093;-80
2022/05/06 04:52:29;;;;;;;6.22;3.13;;;9.30;79.90;;;;;;4985566;28;20038;-80
2022/05/06 04:54:54;;;;;;;4.35;2.63;;;9.30;80.00;;;;;;4987350;28;20559;-80
2022/05/06 04:57:20;;;;;;;4.82;2.88;;;9.30;80.00;;;;;;4948957;28;20049;-80
2022/05/06 04:59:47;;;;;;;3.30;2.80;;;9.30;80.10;;;;;;4972449;28;20042;-79
2022/05/06 05:02:15;;;;;;;4.47;3.00;;;9.40;80.10;;;;;;4982106;28;20037;-80
2022/05/06 05:04:40;;;;;;;4.28;3.33;;;9.40;80.20;;;;;;4990204;28;20049;-80
2022/05/06 05:07:06;;;;;;;5.60;3.08;;;9.40;80.20;;;;;;4989989;28;20035;-80
2022/05/06 05:09:31;;;;;;;4.03;3.53;;;9.50;80.20;;;;;;4979192;28;20042;-80
2022/05/06 05:11:57;;;;;;;4.20;2.80;;;9.50;80.30;;;;;;4967885;28;20031;-80
2022/05/06 05:14:23;;;;;;;5.40;3.35;;;9.50;80.30;;;;;;4973668;28;20485;-80
2022/05/06 05:16:50;;;;;;;3.33;2.78;;;9.60;80.40;;;;;;4983696;28;20053;-80
2022/05/06 05:19:16;;;;;;;4.75;3.10;;;9.60;80.40;;;;;;4968191;28;20053;-80
2022/05/06 05:21:42;;;;;;;4.47;3.20;;;9.60;80.40;;;;;;4966454;28;20041;-80
2022/05/06 05:24:07;;;;;;;9.63;4.15;;;9.70;80.50;;;;;;4978851;28;20034;-80
2022/05/06 05:26:33;;;;;;;5.95;3.25;;;9.70;80.50;;;;;;4968095;28;20038;-80
2022/05/06 05:28:59;;;;;;;4.45;2.85;;;9.80;80.40;;;;;;4955685;28;20030;-80
2022/05/06 05:31:24;;;;;;;7.30;3.20;;;9.80;80.40;;;;;;4989118;28;20026;-79
2022/05/06 05:33:52;;;;;;;4.80;3.20;;;9.80;80.40;;;;;;4969615;28;20742;-80
2022/05/06 05:36:18;;;;;;;3.85;2.97;;;9.90;80.50;;;;;;4994817;28;20033;-79
2022/05/06 05:38:43;;;;;;;7.75;2.88;;;9.90;80.50;;;;;;4986584;28;20045;-79
2022/05/06 05:41:09;;;;;;;7.85;2.80;;;10.00;80.50;;;;;;4981319;28;20038;-79
2022/05/06 05:49:02;;;;;;;4.15;2.97;;;10.20;80.30;;;;;;4975376;28;20045;-79
2022/05/06 05:51:28;;;;;;;4.03;2.80;;;10.20;80.20;;;;;;4991613;28;20037;-80
2022/05/06 05:53:53;;;;;;;4.53;3.00;;;10.30;80.20;;;;;;4963540;28;20043;-80
2022/05/06 05:56:19;;;;;;;6.05;2.90;;;10.30;80.00;;;;;;4986630;28;20030;-80
2022/05/06 05:58:45;;;;;;;5.88;3.03;;;10.40;80.00;;;;;;4985175;28;20084;-79
2022/05/06 06:01:11;;;;;;;5.65;2.97;;;10.50;80.10;;;;;;4987674;28;20038;-79
2022/05/06 06:03:37;;;;;;;4.57;3.08;;;10.50;80.00;;;;;;4980142;28;20042;-79
2022/05/06 06:06:03;;;;;;;5.40;3.60;;;10.60;80.00;;;;;;4962005;28;20044;-80
2022/05/06 06:08:28;;;;;;;3.40;3.05;;;10.70;79.90;;;;;;4978871;28;20038;-79
2022/05/06 06:10:54;;;;;;;5.07;3.03;;;10.70;79.80;;;;;;4985326;28;20042;-79
2022/05/06 06:13:19;;;;;;;4.75;3.30;;;10.80;79.80;;;;;;4960490;28;20030;-79
2022/05/06 06:15:45;;;;;;;7.50;3.60;;;10.90;79.70;;;;;;4991593;28;20125;-79
2022/05/06 06:18:11;;;;;;;7.13;3.47;;;10.90;79.60;;;;;;4985967;28;20145;-79
2022/05/06 06:20:39;;;;;;;6.90;3.20;;;11.00;79.50;;;;;;4984410;28;20079;-79
2022/05/06 06:23:05;;;;;;;5.88;2.55;;;11.10;79.50;;;;;;4956794;28;20053;-79
2022/05/06 06:25:30;;;;;;;9.57;3.20;;;11.10;79.40;;;;;;4995748;28;20628;-80
2022/05/06 06:27:56;;;;;;;5.30;3.13;;;11.20;79.20;;;;;;4987884;28;20022;-79
2022/05/06 06:30:21;;;;;;;2.97;2.67;;;11.30;79.20;;;;;;4998742;28;20109;-80
2022/05/06 06:32:47;;;;;;;4.18;3.28;;;11.40;79.10;;;;;;4984329;28;20508;-80
2022/05/06 06:35:12;;;;;;;3.58;3.15;;;11.40;79.00;;;;;;4978979;28;20086;-80
2022/05/06 06:37:38;;;;;;;4.30;3.70;;;11.50;78.80;;;;;;4989508;28;20484;-79
2022/05/06 06:40:05;;;;;;;5.60;2.85;;;11.60;78.70;;;;;;4987978;28;20412;-79
2022/05/06 06:42:31;;;;;;;4.68;3.00;;;11.70;78.60;;;;;;4988769;28;20054;-80
2022/05/06 06:44:58;;;;;;;6.13;3.10;;;11.80;78.40;;;;;;4983762;28;20077;-80
2022/05/06 06:47:24;;;;;;;6.97;3.70;;;11.80;78.10;;;;;;4984631;28;20084;-80
2022/05/06 06:49:49;;;;;;;3.95;2.65;;;11.90;77.90;;;;;;4963509;28;20044;-80
2022/05/06 06:52:15;;;;;;;5.03;3.45;;;12.00;77.70;;;;;;4966281;28;20045;-80
2022/05/06 06:54:40;;;;;;;9.30;3.90;;;12.10;77.50;;;;;;4979939;28;20049;-80
2022/05/06 06:57:06;;;;;;;6.88;4.20;;;12.10;77.30;;;;;;4988098;28;20041;-80
2022/05/06 06:59:31;;;;;;;6.30;4.47;;;12.20;77.10;;;;;;4960830;28;20078;-80
2022/05/06 07:01:57;;;;;;;5.50;4.18;;;12.30;76.90;;;;;;4983857;28;20468;-80
2022/05/06 07:04:23;;;;;;;6.25;4.97;;;12.40;76.70;;;;;;4992365;28;20104;-80
2022/05/06 07:12:17;;;;;;;3.97;2.80;;;12.60;75.90;;;;;;4968354;28;20202;-80
2022/05/06 07:14:43;;;;;;;5.32;2.75;;;12.60;75.60;;;;;;4993696;28;20160;-80
2022/05/06 07:17:08;;;;;;;7.20;3.47;;;12.70;75.40;;;;;;4985818;28;20042;-80
2022/05/06 07:19:34;;;;;;;3.55;2.72;;;12.80;75.20;;;;;;4984436;28;20049;-80
2022/05/06 07:21:59;;;;;;;8.05;6.18;;;12.90;75.10;;;;;;4980146;28;20038;-80
2022/05/06 07:24:25;;;;;;;8.88;6.13;;;13.00;74.90;;;;;;4988228;28;20043;-80
2022/05/06 07:26:51;;;;;;;10.80;3.67;;;13.10;74.60;;;;;;4985331;28;20043;-80
2022/05/06 07:29:17;;;;;;;10.80;4.00;;;13.20;74.20;;;;;;4991765;28;20091;-80
2022/05/06 07:31:43;;;;;;;6.50;3.85;;;13.30;73.90;;;;;;4967972;28;20042;-81
2022/05/06 07:34:12;;;;;;;3.30;2.83;;;13.50;73.70;;;;;;4991334;28;20578;-80
2022/05/06 07:36:42;;;;;;;3.33;2.22;;;13.60;73.30;;;;;;4963390;28;20177;-80
2022/05/06 07:39:16;;;;;;;5.97;2.40;;;13.80;73.10;;;;;;4960087;28;20064;-80
2022/05/06 07:41:42;;;;;;;3.47;2.10;;;13.90;72.70;;;;;;4982922;28;20548;-80
2022/05/06 07:44:08;;;;;;;6.60;2.40;;;14.10;72.60;;;;;;4968994;28;20034;-80
2022/05/06 07:46:34;;;;;;;6.57;2.15;;;14.20;72.20;;;;;;4991670;28;20037;-80
2022/05/06 07:48:59;;;;;;;7.40;2.13;;;14.40;71.90;;;;;;4984517;28;20109;-80
2022/05/06 07:51:25;;;;;;;8.00;2.35;;;14.50;71.50;;;;;;4996788;28;20081;-80
2022/05/06 07:53:52;;;;;;;6.72;2.90;;;14.60;71.20;;;;;;4966542;28;20043;-81
2022/05/06 07:56:19;;;;;;;3.47;2.42;;;14.80;70.80;;;;;;4978923;28;20034;-80
2022/05/06 07:58:45;;;;;;;4.22;2.08;;;15.00;70.30;;;;;;4991533;28;20038;-80
2022/05/06 08:01:12;;;;;;;7.03;2.25;;;15.20;69.90;;;;;;4981017;28;20037;-80
2022/05/06 08:06:21;;;;;;;7.20;2.45;;;15.60;69.00;;;;;;4967991;28;20049;-81
2022/05/06 08:08:47;;;;;;;2.50;1.52;;;15.70;68.60;;;;;;4973101;28;20022;-80
2022/05/06 08:11:12;;;;;;;6.13;2.42;;;15.90;67.90;;;;;;4979347;28;20035;-80
2022/05/06 08:13:38;;;;;;;8.15;2.20;;;16.00;67.40;;;;;;4988545;28;20117;-80
2022/05/06 08:16:04;;;;;;;3.92;1.83;;;16.20;66.90;;;;;;4991083;28;20061;-80
2022/05/06 08:18:29;;;;;;;6.07;1.75;;;16.30;66.30;;;;;;4975123;28;20046;-79
2022/05/06 08:20:55;;;;;;;3.90;2.50;;;16.40;65.80;;;;;;4989103;28;20056;-80
2022/05/06 08:23:22;;;;;;;4.28;1.63;;;16.50;65.60;;;;;;4981121;28;20023;-80
2022/05/06 08:25:48;;;;;;;3.17;1.58;;;16.60;65.80;;;;;;4953449;28;20037;-79
2022/05/06 08:28:14;;;;;;;2.50;1.33;;;16.60;64.70;;;;;;4975817;28;20116;-80
2022/05/06 08:30:40;;;;;;;1.42;1.25;;;16.70;64.10;;;;;;4956051;28;20810;-81
2022/05/06 08:33:05;;;;;;;2.85;1.50;;;16.80;63.90;;;;;;4954397;28;20035;-81
2022/05/06 08:35:31;;;;;;;4.60;1.88;;;16.90;63.80;;;;;;4970760;28;20386;-79
2022/05/06 08:37:57;;;;;;;3.22;1.20;;;17.10;63.50;;;;;;4975428;28;20109;-80
2022/05/06 08:40:29;;;;;;;2.45;1.48;;;17.30;63.20;;;;;;4971750;28;20034;-80
2022/05/06 08:42:54;;;;;;;2.08;1.58;;;17.40;62.60;;;;;;4985311;28;20038;-81
2022/05/06 08:50:53;;;;;;;5.13;1.70;;;17.90;61.40;;;;;;4976717;28;20033;-80
2022/05/06 08:53:20;;;;;;;4.18;1.30;;;18.00;60.80;;;;;;4983354;28;20116;-81
2022/05/06 08:55:47;;;;;;;2.58;1.38;;;18.10;60.60;;;;;;4989699;28;20030;-81
2022/05/06 08:58:13;;;;;;;2.17;1.10;;;18.20;60.10;;;;;;4977711;28;20643;-81
2022/05/06 09:00:38;;;;;;;3.60;1.42;;;18.30;59.70;;;;;;4978703;28;20088;-80
2022/05/06 09:03:04;;;;;;;1.55;1.33;;;18.40;59.40;;;;;;4992129;28;20027;-80
2022/05/06 09:05:31;;;;;;;3.22;1.10;;;18.40;59.00;;;;;;4991779;28;20034;-80
2022/05/06 09:08:02;;;;;;;5.95;1.45;;;18.60;58.80;;;;;;4981236;28;20036;-80
2022/05/06 09:10:28;;;;;;;;;;;18.70;58.30;;;;;;4962456;28;20108;-80
2022/05/06 09:12:59;;;;;;;3.80;1.08;;;18.80;58.40;;;;;;4983376;28;20588;-80
2022/05/06 09:18:09;;;;;;;5.93;1.20;;;18.90;57.80;;;;;;4960362;28;20085;-80
2022/05/06 09:20:35;;;;;;;3.13;1.27;;;19.00;57.80;;;;;;4984019;28;20042;-80
2022/05/06 09:23:24;;;;;;;2.42;1.10;;;19.20;57.80;;;;;;4964352;28;20029;-81
2022/05/06 09:25:54;;;;;;;2.70;1.25;;;19.30;56.80;;;;;;4970245;28;20040;-81
2022/05/06 09:28:23;;;;;;;3.42;1.23;;;19.40;57.30;;;;;;4984740;28;20456;-81
2022/05/06 09:31:07;;;;;;;4.82;1.10;;;19.60;57.10;;;;;;4992157;28;20026;-80
2022/05/06 09:33:46;;;;;;;4.35;1.10;;;19.80;55.90;;;;;;4983246;28;20038;-81
2022/05/06 09:36:29;;;;;;;2.35;1.00;;;20.00;55.80;;;;;;4992488;28;20069;-80
2022/05/06 09:39:04;;;;;;;3.95;1.20;;;20.20;55.10;;;;;;4987722;28;20026;-80
2022/05/06 09:41:29;;;;;;;3.03;1.40;;;20.30;54.80;;;;;;4970373;28;20034;-80
2022/05/06 09:43:59;;;;;;;6.30;1.33;;;20.40;54.90;;;;;;4977798;28;20050;-80
2022/05/06 09:46:25;;;;;;;2.45;1.10;;;20.60;54.20;;;;;;4970073;28;20054;-81
2022/05/06 09:48:58;;;;;;;5.55;1.05;;;20.70;53.80;;;;;;4989861;28;20112;-81
2022/05/06 09:51:27;;;;;;;2.67;0.93;;;20.80;53.00;;;;;;4980844;28;20045;-81
2022/05/06 09:53:55;;;;;;;2.40;0.90;;;20.90;52.70;;;;;;4986073;28;20788;-81
2022/05/06 09:56:21;;;;;;;4.57;1.10;;;21.00;52.20;;;;;;4995656;28;20038;-81
2022/05/06 09:58:47;;;;;;;2.78;0.80;;;21.10;52.10;;;;;;4987011;28;20720;-81
2022/05/06 10:01:15;;;;;;;1.05;0.80;;;21.10;51.60;;;;;;4983962;28;20038;-80
2022/05/06 10:03:41;;;;;;;2.20;1.20;;;21.10;51.10;;;;;;4987972;28;20045;-81
2022/05/06 10:06:09;;;;;;;4.15;0.95;;;21.10;50.90;;;;;;4979323;28;20034;-81
2022/05/06 10:08:35;;;;;;;1.70;0.80;;;21.20;50.80;;;;;;4988911;28;20044;-81
2022/05/06 10:11:01;;;;;;;2.15;0.60;;;21.30;50.90;;;;;;4958010;28;20038;-80
2022/05/06 10:13:28;;;;;;;0.85;0.60;;;21.50;50.50;;;;;;4975679;28;20038;-79
2022/05/06 10:15:54;;;;;;;2.22;1.00;;;21.60;50.30;;;;;;4985010;28;20057;-81
2022/05/06 10:18:39;;;;;;;1.67;0.85;;;21.80;50.30;;;;;;4965009;28;20078;-80
2022/05/06 10:21:06;;;;;;;3.10;0.90;;;22.10;49.00;;;;;;4968457;28;20038;-79
2022/05/06 10:23:48;;;;;;;1.40;0.80;;;22.20;49.50;;;;;;4986200;28;20073;-82
2022/05/06 10:26:36;;;;;;;4.13;0.82;;;22.40;48.40;;;;;;4968761;28;20049;-81
2022/05/06 10:34:32;;;;;;;1.08;0.70;;;22.80;48.30;;;;;;4982345;28;20049;-80
2022/05/06 10:37:00;;;;;;;1.17;0.60;;;23.00;48.20;;;;;;4961114;28;20058;-80
2022/05/06 10:39:35;;;;;;;2.40;0.75;;;23.10;47.80;;;;;;4987218;28;20065;-80
2022/05/06 10:42:07;;;;;;;3.10;0.40;;;23.10;46.70;;;;;;4984226;28;20049;-80
2022/05/06 10:44:37;;;;;;;2.55;0.60;;;23.20;46.70;;;;;;4956467;28;20026;-80
2022/05/06 10:47:23;;;;;;;1.88;0.52;;;23.30;47.00;;;;;;4974694;28;20034;-80
2022/05/06 10:49:50;;;;;;;1.40;0.75;;;23.40;46.80;;;;;;4980716;28;22882;-80
2022/05/06 10:52:15;;;;;;;5.13;0.98;;;23.60;46.60;;;;;;4983040;28;20101;-80
2022/05/06 10:54:47;;;;;;;2.80;0.80;;;23.70;46.30;;;;;;4996875;28;20037;-81
2022/05/06 10:57:13;;;;;;;1.73;0.80;;;24.00;45.70;;;;;;4983647;28;20041;-80
2022/05/06 10:59:52;;;;;;;2.83;0.90;;;24.10;45.50;;;;;;4973715;28;20080;-81
2022/05/06 11:02:20;;;;;;;2.95;0.90;;;24.20;43.80;;;;;;4961457;28;20034;-80
2022/05/06 11:04:59;;;;;;;0.90;0.50;;;24.20;45.00;;;;;;4967502;28;20038;-80
2022/05/06 11:07:25;;;;;;;3.38;0.80;;;24.30;43.60;;;;;;4974311;28;20038;-81
2022/05/06 11:09:53;;;;;;;3.13;1.00;;;24.40;44.50;;;;;;4976828;28;20041;-80
2022/05/06 11:12:28;;;;;;;4.00;1.00;;;24.50;44.30;;;;;;4979477;28;20038;-80
2022/05/06 11:14:57;;;;;;;1.00;0.90;;;24.60;42.90;;;;;;4984474;28;20030;-80
2022/05/06 11:17:22;;;;;;;1.27;0.80;;;24.80;43.50;;;;;;4996395;28;20965;-79
2022/05/06 11:19:49;;;;;;;1.17;0.60;;;24.90;43.30;;;;;;4985086;28;20037;-80
2022/05/06 11:22:15;;;;;;;4.20;1.25;;;25.00;42.90;;;;;;4992519;28;20160;-80
2022/05/06 11:24:40;;;;;;;3.70;0.85;;;25.10;43.10;;;;;;4987263;28;20046;-81
2022/05/06 11:27:16;;;;;;;2.35;0.77;;;25.30;43.00;;;;;;4976534;28;20042;-80
2022/05/06 11:29:55;;;;;;;1.98;0.95;;;25.40;42.10;;;;;;4996701;28;20044;-81
2022/05/06 11:32:20;;;;;;;2.22;0.85;;;25.50;41.70;;;;;;4975795;28;20045;-80
2022/05/06 11:34:59;;;;;;;0.80;0.70;;;25.60;42.50;;;;;;4984288;28;20040;-80
2022/05/06 11:37:26;;;;;;;2.60;0.68;;;25.70;42.60;;;;;;4996045;28;22534;-81
2022/05/06 11:39:51;;;;;;;2.45;0.77;;;25.90;42.50;;;;;;4971638;28;20073;-81
2022/05/06 11:42:23;;;;;;;3.25;1.00;;;26.00;42.20;;;;;;4974653;28;20054;-80
2022/05/06 11:47:41;;;;;;;1.15;0.68;;;26.10;41.00;;;;;;4998371;28;20065;-80
2022/05/06 11:50:07;;;;;;;1.17;0.70;;;26.20;41.70;;;;;;4981029;28;20636;-81
2022/05/06 11:52:33;;;;;;;3.40;0.90;;;26.20;41.40;;;;;;4984521;28;20488;-80
2022/05/06 11:54:58;;;;;;;3.22;0.85;;;26.30;41.30;;;;;;4953866;28;20050;-80
2022/05/06 11:57:24;;;;;;;2.50;0.80;;;26.40;41.00;;;;;;4979000;28;20038;-80
2022/05/06 11:59:49;;;;;;;0.80;0.80;;;26.40;40.80;;;;;;4976054;28;20037;-81
2022/05/06 12:02:15;;;;;;;1.33;0.80;;;26.50;40.90;;;;;;4989461;28;20042;-80
2022/05/06 12:04:40;;;;;;;3.30;0.80;;;26.60;41.00;;;;;;4989853;28;20034;-81
2022/05/06 12:07:06;;;;;;;1.95;1.10;;;26.80;41.00;;;;;;4981620;28;20053;-82
2022/05/06 12:09:41;;;;;;;2.05;0.90;;;27.00;40.40;;;;;;4980059;28;20034;-81
2022/05/06 12:12:07;;;;;;;1.70;1.05;;;27.10;39.20;;;;;;4985248;28;20129;-81
2022/05/06 12:14:33;;;;;;;3.13;0.90;;;27.30;39.90;;;;;;4968953;28;20034;-81
2022/05/06 12:17:03;;;;;;;2.58;0.82;;;27.50;39.70;;;;;;4974270;28;20049;-81
2022/05/06 12:19:47;;;;;;;0.82;0.82;;;27.60;39.00;;;;;;4984058;28;20038;-81
2022/05/06 12:22:13;;;;;;;2.28;1.05;;;27.80;38.40;;;;;;5008028;28;20120;-80
2022/05/06 12:24:50;;;;;;;2.55;0.95;;;28.00;39.50;;;;;;4990239;28;20092;-81
2022/05/06 12:27:32;;;;;;;2.25;0.90;;;28.20;37.70;;;;;;4969136;28;20038;-81
2022/05/06 12:29:58;;;;;;;1.52;0.75;;;28.20;37.30;;;;;;4986194;28;20086;-81
2022/05/06 12:32:24;;;;;;;2.75;0.85;;;28.20;38.30;;;;;;4958433;28;20050;-80
2022/05/06 12:35:06;;;;;;;1.17;0.80;;;28.30;38.40;;;;;;4983911;28;20044;-81
2022/05/06 12:37:31;;;;;;;1.00;0.80;;;28.30;37.40;;;;;;4993913;28;20092;-81
2022/05/06 12:40:00;;;;;;;2.35;0.80;;;28.40;38.30;;;;;;4963642;28;20031;-81
2022/05/06 12:42:25;;;;;;;3.15;0.98;;;28.50;37.90;;;;;;4973616;28;20033;-81
2022/05/06 12:44:51;;;;;;;0.77;0.73;;;28.60;37.90;;;;;;4989645;28;20449;-81
2022/05/06 12:50:05;;;;;;;1.52;0.82;;;28.80;37.20;;;;;;4988215;28;20074;-80
2022/05/06 12:52:32;;;;;;;2.72;0.82;;;28.90;37.40;;;;;;4988352;28;20654;-83
2022/05/06 12:54:58;;;;;;;2.38;0.70;;;28.90;37.40;;;;;;4985718;28;20070;-80
2022/05/06 12:57:26;;;;;;;2.33;0.70;;;28.90;37.40;;;;;;4983441;28;20156;-81
2022/05/06 12:59:51;;;;;;;1.80;0.80;;;29.00;37.50;;;;;;4993781;28;20032;-81
2022/05/06 13:02:17;;;;;;;3.80;0.90;;;29.10;36.90;;;;;;4974377;28;20038;-81
2022/05/06 13:04:43;;;;;;;2.33;0.90;;;29.20;36.80;;;;;;4974261;28;20044;-81
2022/05/06 13:07:08;;;;;;;3.22;1.00;;;29.20;36.60;;;;;;4974222;28;20034;-81
2022/05/06 13:09:34;;;;;;;1.08;0.80;;;29.20;36.30;;;;;;4983711;28;20041;-81
2022/05/06 13:12:00;;;;;;;1.30;0.85;;;29.30;36.10;;;;;;4989635;28;20442;-81
2022/05/06 13:14:25;;;;;;;2.28;0.88;;;29.30;35.80;;;;;;4988487;28;20463;-81
2022/05/06 13:16:53;;;;;;;2.42;0.90;;;29.50;36.00;;;;;;5002649;28;21302;-81
2022/05/06 13:19:18;;;;;;;2.88;1.10;;;29.60;35.70;;;;;;5015388;28;20510;-81
2022/05/06 13:21:44;;;;;;;1.58;0.90;;;29.60;35.40;;;;;;5001590;28;20036;-81
2022/05/06 13:24:10;;;;;;;1.48;0.80;;;29.60;35.30;;;;;;4997406;28;20069;-81
2022/05/06 13:26:36;;;;;;;1.15;0.77;;;29.60;35.20;;;;;;5006361;28;20112;-81
2022/05/06 13:29:05;;;;;;;1.58;0.90;;;29.70;35.40;;;;;;5012165;28;20125;-81
2022/05/06 13:31:31;;;;;;;2.05;0.93;;;29.90;35.30;;;;;;5005641;28;20042;-81
2022/05/06 13:33:56;;;;;;;2.72;0.85;;;30.00;35.10;;;;;;4981469;28;20491;-80